Time;durP1;ratioP1;P1;durP2;ratioP2;P2;SDS_P1;SDS_P2;PMS_P1;PMS_P2;Temp;Humidity;BMP_temperature;BMP_pressure;BME280_temperature;BME280_humidity;BME280_pressure;Samples;Min_cycle;Max_cycle;Signal;HPM_P1;HPM_P2
2023/05/08 00:04:00;;;;;;;5.85;5.03;;;;;;;;;;12666159;23;20371;-86
2023/05/08 00:09:04;;;;;;;4.93;4.45;;;;;;;;;;12667545;23;20375;-86
2023/05/08 00:14:07;;;;;;;5.63;4.65;;;;;;;;;;12667082;23;20458;-87
2023/05/08 00:19:09;;;;;;;4.87;4.37;;;;;;;;;;12663940;23;20394;-87
2023/05/08 00:24:12;;;;;;;9.60;8.45;;;;;;;;;;12665923;23;20379;-86
2023/05/08 00:29:15;;;;;;;10.50;8.40;;;;;;;;;;12668051;23;20423;-86
2023/05/08 00:34:17;;;;;;;10.82;8.55;;;;;;;;;;12662727;23;20375;-87
2023/05/08 00:39:21;;;;;;;7.20;4.38;;;;;;;;;;12668579;23;20780;-88
2023/05/08 00:44:23;;;;;;;7.78;2.53;;;;;;;;;;12671006;23;20744;-87
2023/05/08 00:49:26;;;;;;;5.77;2.80;;;;;;;;;;12667828;23;20375;-87
2023/05/08 00:54:30;;;;;;;5.10;1.80;;;;;;;;;;12668286;23;20744;-88
2023/05/08 00:59:33;;;;;;;4.03;1.55;;;;;;;;;;12668446;23;20386;-88
2023/05/08 01:04:37;;;;;;;6.60;3.15;;;;;;;;;;12669784;23;20426;-88
2023/05/08 01:09:41;;;;;;;3.60;1.80;;;;;;;;;;12668566;23;20371;-86
2023/05/08 01:14:56;;;;;;;2.42;1.85;;;;;;;;;;12666648;23;20713;-85
2023/05/08 01:20:10;;;;;;;4.13;2.28;;;;;;;;;;12669850;23;20677;-86
2023/05/08 01:25:46;;;;;;;2.80;2.13;;;;;;;;;;12691113;23;20920;-87
2023/05/08 01:31:01;;;;;;;4.72;2.40;;;;;;;;;;12666587;23;20428;-85
2023/05/08 01:36:20;;;;;;;4.03;2.50;;;;;;;;;;12669793;23;20367;-86
2023/05/08 01:41:26;;;;;;;3.22;2.00;;;;;;;;;;12671561;23;20784;-87
2023/05/08 01:46:33;;;;;;;2.80;1.52;;;;;;;;;;12692587;23;20379;-87
2023/05/08 01:51:43;;;;;;;2.70;1.50;;;;;;;;;;12674184;23;20403;-86
2023/05/08 01:56:47;;;;;;;2.47;1.90;;;;;;;;;;12691915;23;20378;-88
2023/05/08 02:01:52;;;;;;;3.65;1.55;;;;;;;;;;12671178;23;20426;-86
2023/05/08 02:06:58;;;;;;;2.53;1.75;;;;;;;;;;12671612;23;20386;-87
2023/05/08 02:12:02;;;;;;;3.00;1.90;;;;;;;;;;12670569;23;20375;-87
2023/05/08 02:17:08;;;;;;;4.60;3.00;;;;;;;;;;12691363;23;20383;-87
2023/05/08 02:22:12;;;;;;;4.95;3.10;;;;;;;;;;12670652;23;20403;-87
2023/05/08 02:27:16;;;;;;;4.43;3.55;;;;;;;;;;12690832;23;20931;-87
2023/05/08 02:32:20;;;;;;;4.10;3.20;;;;;;;;;;12670814;23;20430;-86
2023/05/08 02:37:25;;;;;;;4.35;3.70;;;;;;;;;;12671139;23;20387;-87
2023/05/08 02:42:28;;;;;;;5.68;3.80;;;;;;;;;;12670422;23;20692;-87
2023/05/08 02:47:38;;;;;;;3.83;3.53;;;;;;;;;;12671270;23;20442;-86
2023/05/08 02:52:46;;;;;;;3.57;3.27;;;;;;;;;;12670869;23;20407;-88
2023/05/08 02:57:57;;;;;;;4.80;3.70;;;;;;;;;;12670274;23;20395;-86
2023/05/08 03:03:04;;;;;;;4.00;3.60;;;;;;;;;;12690837;23;20432;-86
2023/05/08 03:08:15;;;;;;;3.57;3.27;;;;;;;;;;12689354;23;20712;-88
2023/05/08 03:13:19;;;;;;;4.18;3.13;;;;;;;;;;12678307;23;20946;-86
2023/05/08 03:18:25;;;;;;;3.83;2.80;;;;;;;;;;12689867;23;20391;-86
2023/05/08 03:23:33;;;;;;;4.28;3.40;;;;;;;;;;12670148;23;20375;-87
2023/05/08 03:28:36;;;;;;;4.13;3.30;;;;;;;;;;12669136;23;20375;-85
2023/05/08 03:33:41;;;;;;;3.67;3.38;;;;;;;;;;12689650;23;20383;-87
2023/05/08 03:38:45;;;;;;;4.10;3.42;;;;;;;;;;12670053;23;20395;-87
2023/05/08 03:43:48;;;;;;;4.95;4.18;;;;;;;;;;12669590;23;20681;-86
2023/05/08 03:48:51;;;;;;;5.43;4.57;;;;;;;;;;12669496;23;20403;-87
2023/05/08 03:53:55;;;;;;;5.85;4.40;;;;;;;;;;12671380;23;20375;-87
2023/05/08 03:59:08;;;;;;;6.17;4.63;;;;;;;;;;12669282;23;20402;-86
2023/05/08 04:04:17;;;;;;;5.13;4.60;;;;;;;;;;12668765;23;20375;-86
2023/05/08 04:09:28;;;;;;;5.45;4.95;;;;;;;;;;12689405;23;20431;-87
2023/05/08 04:14:34;;;;;;;5.88;4.80;;;;;;;;;;12669184;23;20749;-87
2023/05/08 04:19:43;;;;;;;5.43;4.80;;;;;;;;;;12688891;23;20379;-87
2023/05/08 04:24:49;;;;;;;5.27;4.40;;;;;;;;;;12668966;23;20371;-87
2023/05/08 04:29:51;;;;;;;5.72;4.65;;;;;;;;;;12668289;23;20498;-86
2023/05/08 04:34:54;;;;;;;5.93;4.90;;;;;;;;;;12668478;23;20407;-87
2023/05/08 04:39:58;;;;;;;5.50;5.00;;;;;;;;;;12668430;23;20395;-86
2023/05/08 04:45:00;;;;;;;6.57;4.95;;;;;;;;;;12668615;23;20375;-86
2023/05/08 04:50:03;;;;;;;6.00;4.90;;;;;;;;;;12667595;23;20430;-87
2023/05/08 04:55:08;;;;;;;5.97;5.38;;;;;;;;;;12669408;23;20720;-87
2023/05/08 05:00:11;;;;;;;6.97;5.47;;;;;;;;;;12668329;23;20426;-85
2023/05/08 05:05:13;;;;;;;7.77;6.40;;;;;;;;;;12664033;23;20379;-86
2023/05/08 05:10:18;;;;;;;7.60;5.85;;;;;;;;;;12686813;23;20449;-85
2023/05/08 05:15:21;;;;;;;6.78;6.05;;;;;;;;;;12665189;23;20371;-85
2023/05/08 05:20:23;;;;;;;8.73;6.32;;;;;;;;;;12666101;23;20394;-84
2023/05/08 05:25:27;;;;;;;7.22;6.45;;;;;;;;;;12667426;23;20673;-85
2023/05/08 05:30:29;;;;;;;7.70;6.85;;;;;;;;;;12686804;23;20434;-87
2023/05/08 05:35:32;;;;;;;8.20;6.97;;;;;;;;;;12665674;23;20442;-87
2023/05/08 05:40:36;;;;;;;7.65;6.90;;;;;;;;;;12662758;23;20446;-87
2023/05/08 05:45:38;;;;;;;7.80;7.00;;;;;;;;;;12663080;23;20692;-87
2023/05/08 05:50:41;;;;;;;9.00;6.97;;;;;;;;;;12673036;23;20379;-88
2023/05/08 05:55:44;;;;;;;8.77;7.45;;;;;;;;;;12664136;23;20371;-87
2023/05/08 06:00:47;;;;;;;9.30;7.50;;;;;;;;;;12676219;23;20423;-87
2023/05/08 06:05:49;;;;;;;8.30;7.47;;;;;;;;;;12649990;23;20381;-87
2023/05/08 06:10:53;;;;;;;11.00;8.30;;;;;;;;;;12611559;23;20521;-87
2023/05/08 06:15:56;;;;;;;9.05;7.78;;;;;;;;;;12610909;23;20373;-87
2023/05/08 06:20:58;;;;;;;9.07;7.97;;;;;;;;;;12610237;23;20444;-87
2023/05/08 06:26:02;;;;;;;10.98;7.65;;;;;;;;;;12606810;23;20377;-86
2023/05/08 06:31:05;;;;;;;9.03;7.90;;;;;;;;;;12606829;23;21018;-87
2023/05/08 06:36:08;;;;;;;8.90;7.72;;;;;;;;;;12610619;23;20377;-86
2023/05/08 06:41:11;;;;;;;8.73;7.80;;;;;;;;;;12609116;23;20455;-86
2023/05/08 06:46:13;;;;;;;8.53;7.00;;;;;;;;;;12610055;23;20556;-87
2023/05/08 06:51:16;;;;;;;8.20;6.40;;;;;;;;;;12610673;23;20377;-86
2023/05/08 06:56:19;;;;;;;8.77;6.80;;;;;;;;;;12609969;23;20742;-85
2023/05/08 07:01:22;;;;;;;7.97;7.00;;;;;;;;;;12613542;23;20393;-86
2023/05/08 07:06:24;;;;;;;6.80;5.93;;;;;;;;;;12612380;23;20710;-86
2023/05/08 07:11:28;;;;;;;7.63;6.00;;;;;;;;;;12608645;23;20377;-85
2023/05/08 07:16:30;;;;;;;5.93;5.33;;;;;;;;;;12608785;23;20365;-86
2023/05/08 07:21:32;;;;;;;6.25;5.47;;;;;;;;;;12607516;23;20456;-86
2023/05/08 07:26:36;;;;;;;4.97;4.47;;;;;;;;;;12606723;23;20373;-86
2023/05/08 07:31:39;;;;;;;5.83;4.70;;;;;;;;;;12609055;23;20443;-87
2023/05/08 07:36:41;;;;;;;5.28;4.78;;;;;;;;;;12609244;23;20829;-86
2023/05/08 07:41:45;;;;;;;5.57;5.03;;;;;;;;;;12609232;23;20868;-86
2023/05/08 07:46:47;;;;;;;5.73;5.13;;;;;;;;;;12608452;23;20451;-86
2023/05/08 07:51:50;;;;;;;6.13;5.50;;;;;;;;;;12608477;23;20461;-86
2023/05/08 07:56:53;;;;;;;6.13;5.40;;;;;;;;;;12608975;23;20372;-86
2023/05/08 08:01:55;;;;;;;6.30;5.20;;;;;;;;;;12608202;23;20774;-86
2023/05/08 08:06:58;;;;;;;6.10;5.50;;;;;;;;;;12615527;23;20431;-86
2023/05/08 08:12:02;;;;;;;7.00;5.53;;;;;;;;;;12629219;23;20440;-86
2023/05/08 08:17:04;;;;;;;7.23;6.13;;;;;;;;;;12608815;23;20484;-86
2023/05/08 08:22:06;;;;;;;7.60;6.35;;;;;;;;;;12608403;23;20901;-86
2023/05/08 08:27:10;;;;;;;6.83;6.13;;;;;;;;;;12608400;23;20404;-86
2023/05/08 08:32:12;;;;;;;8.15;5.88;;;;;;;;;;12608162;23;20429;-87
2023/05/08 08:37:15;;;;;;;7.40;6.60;;;;;;;;;;12608067;23;20388;-86
2023/05/08 08:42:18;;;;;;;8.13;5.90;;;;;;;;;;12607646;23;20473;-85
2023/05/08 08:47:25;;;;;;;7.23;6.13;;;;;;;;;;12610008;23;20380;-86
2023/05/08 08:52:31;;;;;;;6.57;5.72;;;;;;;;;;12608544;23;20373;-86
2023/05/08 08:57:39;;;;;;;6.40;5.38;;;;;;;;;;12608051;23;20861;-86
2023/05/08 09:02:42;;;;;;;6.05;5.45;;;;;;;;;;12607170;23;20425;-86
2023/05/08 09:07:44;;;;;;;5.97;5.25;;;;;;;;;;12607497;23;20377;-86
2023/05/08 09:12:48;;;;;;;6.80;5.50;;;;;;;;;;12611152;23;20457;-86
2023/05/08 09:17:51;;;;;;;7.15;5.30;;;;;;;;;;12607101;23;20439;-86
2023/05/08 09:22:54;;;;;;;9.48;5.80;;;;;;;;;;12607694;23;20392;-86
2023/05/08 09:28:15;;;;;;;6.50;5.80;;;;;;;;;;12607411;23;20376;-86
2023/05/08 09:33:17;;;;;;;8.10;6.35;;;;;;;;;;12607718;23;20706;-85
2023/05/08 09:38:36;;;;;;;6.93;6.10;;;;;;;;;;12608686;23;20373;-87
2023/05/08 09:43:40;;;;;;;7.65;6.47;;;;;;;;;;12612853;23;20404;-88
2023/05/08 09:48:42;;;;;;;7.20;6.10;;;;;;;;;;12611446;23;20376;-88
2023/05/08 09:53:45;;;;;;;7.53;6.03;;;;;;;;;;12610822;23;20365;-88
2023/05/08 09:58:49;;;;;;;7.13;6.20;;;;;;;;;;12611639;23;20365;-88
2023/05/08 10:03:51;;;;;;;7.78;6.25;;;;;;;;;;12610472;23;20397;-86
2023/05/08 10:09:07;;;;;;;9.73;6.55;;;;;;;;;;12609768;23;20766;-88
2023/05/08 10:14:11;;;;;;;8.40;6.40;;;;;;;;;;12611405;23;21042;-87
2023/05/08 10:19:15;;;;;;;7.27;5.93;;;;;;;;;;12614457;23;20881;-88
2023/05/08 10:24:18;;;;;;;7.70;6.37;;;;;;;;;;12610637;23;20376;-88
2023/05/08 10:29:34;;;;;;;8.07;5.80;;;;;;;;;;12610756;23;20448;-87
2023/05/08 10:34:40;;;;;;;6.13;5.50;;;;;;;;;;12611309;23;20384;-88
2023/05/08 10:39:44;;;;;;;5.80;5.13;;;;;;;;;;12610649;23;20758;-88
2023/05/08 10:44:48;;;;;;;5.85;4.80;;;;;;;;;;12610361;23;20405;-87
2023/05/08 10:50:00;;;;;;;4.90;4.50;;;;;;;;;;12610014;23;20440;-87
2023/05/08 10:55:22;;;;;;;5.90;4.70;;;;;;;;;;12610331;23;20377;-87
2023/05/08 11:00:26;;;;;;;5.03;4.47;;;;;;;;;;12611850;23;20923;-87
2023/05/08 11:05:28;;;;;;;5.15;4.65;;;;;;;;;;12610603;23;20861;-87
2023/05/08 11:10:32;;;;;;;4.87;3.97;;;;;;;;;;12609682;23;20373;-88
2023/05/08 11:15:42;;;;;;;4.55;4.15;;;;;;;;;;12609857;23;20377;-87
2023/05/08 11:20:56;;;;;;;4.93;4.45;;;;;;;;;;12609144;23;20377;-87
2023/05/08 11:26:00;;;;;;;4.20;3.80;;;;;;;;;;12611602;23;20437;-87
2023/05/08 11:31:05;;;;;;;5.45;4.40;;;;;;;;;;12609172;23;20428;-87
2023/05/08 11:36:14;;;;;;;4.65;4.25;;;;;;;;;;12607906;23;20369;-87
2023/05/08 11:41:21;;;;;;;5.40;4.30;;;;;;;;;;12608414;23;20424;-86
2023/05/08 11:46:35;;;;;;;5.13;4.53;;;;;;;;;;12608410;23;20373;-88
2023/05/08 11:51:43;;;;;;;5.43;4.10;;;;;;;;;;12599172;23;20706;-86
2023/05/08 11:56:47;;;;;;;4.30;3.90;;;;;;;;;;12599947;23;20392;-86
2023/05/08 12:01:51;;;;;;;5.23;4.57;;;;;;;;;;12598477;23;20425;-88
2023/05/08 12:06:58;;;;;;;5.53;4.53;;;;;;;;;;12612143;23;20485;-88
2023/05/08 12:12:00;;;;;;;5.13;4.17;;;;;;;;;;12598841;23;20392;-84
2023/05/08 12:17:04;;;;;;;4.93;4.43;;;;;;;;;;12599475;23;20459;-88
2023/05/08 12:22:08;;;;;;;5.25;4.50;;;;;;;;;;12616925;23;20463;-88
2023/05/08 12:27:12;;;;;;;5.60;4.67;;;;;;;;;;12598961;23;20787;-87
2023/05/08 12:32:17;;;;;;;6.07;5.38;;;;;;;;;;12600517;23;21179;-88
2023/05/08 12:37:24;;;;;;;7.65;5.75;;;;;;;;;;12598092;23;20452;-88
2023/05/08 12:42:41;;;;;;;7.73;5.87;;;;;;;;;;12602407;23;20769;-86
2023/05/08 12:47:47;;;;;;;5.85;5.30;;;;;;;;;;12603394;23;20439;-87
2023/05/08 12:52:49;;;;;;;5.88;5.20;;;;;;;;;;12602327;23;20428;-87
2023/05/08 12:57:59;;;;;;;6.82;5.45;;;;;;;;;;12607070;23;20381;-87
2023/05/08 13:03:04;;;;;;;7.00;6.03;;;;;;;;;;12607396;23;20420;-87
2023/05/08 13:08:08;;;;;;;8.77;6.57;;;;;;;;;;12606298;23;20444;-87
2023/05/08 13:13:11;;;;;;;6.13;5.10;;;;;;;;;;12609835;23;20376;-86
2023/05/08 13:18:15;;;;;;;7.40;5.90;;;;;;;;;;12612028;23;20380;-86
2023/05/08 13:23:17;;;;;;;6.97;5.57;;;;;;;;;;12610568;23;20389;-87
2023/05/08 13:28:19;;;;;;;5.00;4.50;;;;;;;;;;12611929;23;20372;-86
2023/05/08 13:33:23;;;;;;;4.53;3.75;;;;;;;;;;12612212;23;20376;-87
2023/05/08 13:38:25;;;;;;;4.67;3.90;;;;;;;;;;12609499;23;20413;-86
2023/05/08 13:43:28;;;;;;;5.10;4.53;;;;;;;;;;12603952;23;20872;-87
2023/05/08 13:48:31;;;;;;;5.63;4.87;;;;;;;;;;12605766;23;20380;-87
2023/05/08 13:53:33;;;;;;;6.60;5.40;;;;;;;;;;12607410;23;20837;-87
2023/05/08 13:58:36;;;;;;;5.90;5.30;;;;;;;;;;12607210;23;20388;-87
2023/05/08 14:03:39;;;;;;;7.07;5.70;;;;;;;;;;12606550;23;21082;-87
2023/05/08 14:08:45;;;;;;;6.88;5.53;;;;;;;;;;12607059;23;20533;-85
2023/05/08 14:13:47;;;;;;;7.10;5.90;;;;;;;;;;12607885;23;20405;-86
2023/05/08 14:18:51;;;;;;;8.63;7.00;;;;;;;;;;12607258;23;20376;-87
2023/05/08 14:23:53;;;;;;;8.40;6.37;;;;;;;;;;12624406;23;20861;-85
2023/05/08 14:28:55;;;;;;;8.40;7.30;;;;;;;;;;12606418;23;20384;-86
2023/05/08 14:34:02;;;;;;;9.95;7.70;;;;;;;;;;12605511;23;20436;-88
2023/05/08 14:39:04;;;;;;;10.35;7.60;;;;;;;;;;12625678;23;20413;-86
2023/05/08 14:44:22;;;;;;;10.15;8.10;;;;;;;;;;12595683;23;20764;-86
2023/05/08 14:49:26;;;;;;;11.13;8.37;;;;;;;;;;12600060;23;20388;-87
2023/05/08 14:54:28;;;;;;;8.77;7.88;;;;;;;;;;12604809;23;20420;-87
2023/05/08 14:59:31;;;;;;;9.43;8.43;;;;;;;;;;12604559;23;20377;-87
2023/05/08 15:04:39;;;;;;;9.98;7.85;;;;;;;;;;12603629;23;20496;-87
2023/05/08 15:09:41;;;;;;;9.35;7.13;;;;;;;;;;12604572;23;20369;-87
2023/05/08 15:14:44;;;;;;;7.97;6.70;;;;;;;;;;12624270;23;20774;-87
2023/05/08 15:19:53;;;;;;;9.03;7.57;;;;;;;;;;12604700;23;20373;-87
2023/05/08 15:25:00;;;;;;;9.50;7.35;;;;;;;;;;12606552;23;20392;-87
2023/05/08 15:30:03;;;;;;;7.77;6.00;;;;;;;;;;12604732;23;20441;-87
2023/05/08 15:35:07;;;;;;;6.38;5.70;;;;;;;;;;12604492;23;20433;-85
2023/05/08 15:40:11;;;;;;;8.20;6.60;;;;;;;;;;12604743;23;20377;-87
2023/05/08 15:45:14;;;;;;;7.93;7.07;;;;;;;;;;12600392;23;20388;-87
2023/05/08 15:50:18;;;;;;;7.63;6.28;;;;;;;;;;12596903;23;20384;-85
2023/05/08 15:55:20;;;;;;;8.68;6.80;;;;;;;;;;12595702;23;20392;-87
2023/05/08 16:00:23;;;;;;;11.48;7.93;;;;;;;;;;12595565;23;20421;-87
2023/05/08 16:05:26;;;;;;;10.73;7.53;;;;;;;;;;12602721;23;20388;-87
2023/05/08 16:10:29;;;;;;;9.80;7.63;;;;;;;;;;12595108;23;20384;-86
2023/05/08 16:15:31;;;;;;;9.02;7.32;;;;;;;;;;12595931;23;20438;-86
2023/05/08 16:20:35;;;;;;;8.23;7.28;;;;;;;;;;12593020;23;20436;-87
2023/05/08 16:25:37;;;;;;;10.45;7.60;;;;;;;;;;12599577;23;20444;-86
2023/05/08 16:30:39;;;;;;;9.30;7.63;;;;;;;;;;12597683;23;20389;-87
2023/05/08 16:35:43;;;;;;;10.40;7.60;;;;;;;;;;12595682;23;20443;-87
2023/05/08 16:40:45;;;;;;;7.80;7.00;;;;;;;;;;12596672;23;20467;-87
2023/05/08 16:45:52;;;;;;;7.88;6.90;;;;;;;;;;12605199;23;21210;-87
2023/05/08 16:50:59;;;;;;;9.73;7.97;;;;;;;;;;12596852;23;20392;-85
2023/05/08 16:56:01;;;;;;;6.75;6.03;;;;;;;;;;12597161;23;20420;-87
2023/05/08 17:01:03;;;;;;;6.45;5.00;;;;;;;;;;12611618;23;20479;-87
2023/05/08 17:06:08;;;;;;;5.77;4.80;;;;;;;;;;12610595;23;20432;-86
2023/05/08 17:11:13;;;;;;;5.00;4.43;;;;;;;;;;12596997;23;20471;-86
2023/05/08 17:16:15;;;;;;;5.65;4.75;;;;;;;;;;12601021;23;20389;-85
2023/05/08 17:21:19;;;;;;;5.40;4.45;;;;;;;;;;12599722;23;20413;-85
2023/05/08 17:26:22;;;;;;;6.40;4.80;;;;;;;;;;12600008;23;20373;-85
2023/05/08 17:31:24;;;;;;;7.37;4.90;;;;;;;;;;12597600;23;20444;-85
2023/05/08 17:36:28;;;;;;;5.40;4.90;;;;;;;;;;12598694;23;20385;-85
2023/05/08 17:41:30;;;;;;;6.25;5.63;;;;;;;;;;12603527;23;20464;-84
2023/05/08 17:46:33;;;;;;;5.87;5.20;;;;;;;;;;12598575;23;20451;-85
2023/05/08 17:51:36;;;;;;;7.20;5.40;;;;;;;;;;12599885;23;20392;-85
2023/05/08 17:56:39;;;;;;;6.00;5.22;;;;;;;;;;12598248;23;20429;-85
2023/05/08 18:01:41;;;;;;;7.10;5.10;;;;;;;;;;12600545;23;20413;-86
2023/05/08 18:06:47;;;;;;;6.10;5.10;;;;;;;;;;12601616;23;20385;-85
2023/05/08 18:11:54;;;;;;;6.60;5.37;;;;;;;;;;12602721;23;21586;-85
2023/05/08 18:16:56;;;;;;;7.55;5.57;;;;;;;;;;12601386;23;20384;-85
2023/05/08 18:22:00;;;;;;;6.03;5.20;;;;;;;;;;12600899;23;20774;-85
2023/05/08 18:27:02;;;;;;;7.60;5.80;;;;;;;;;;12620756;23;20866;-84
2023/05/08 18:32:05;;;;;;;6.88;5.35;;;;;;;;;;12621804;23;20384;-84
2023/05/08 18:37:09;;;;;;;6.68;5.28;;;;;;;;;;12600098;23;20369;-85
2023/05/08 18:42:14;;;;;;;6.70;5.05;;;;;;;;;;12596918;23;20396;-84
2023/05/08 18:47:16;;;;;;;6.53;4.30;;;;;;;;;;12601311;23;20388;-87
2023/05/08 18:52:20;;;;;;;4.28;3.40;;;;;;;;;;12600201;23;20448;-86
2023/05/08 18:57:22;;;;;;;2.90;2.60;;;;;;;;;;12600099;23;20865;-85
2023/05/08 19:02:26;;;;;;;2.10;1.85;;;;;;;;;;12597598;23;20404;-86
2023/05/08 19:07:30;;;;;;;2.30;1.40;;;;;;;;;;12600877;23;20706;-85
2023/05/08 19:12:32;;;;;;;1.50;1.40;;;;;;;;;;12596582;23;20393;-86
2023/05/08 19:17:35;;;;;;;1.50;1.40;;;;;;;;;;12598591;23;20475;-86
2023/05/08 19:22:39;;;;;;;2.03;1.60;;;;;;;;;;12598189;23;20441;-86
2023/05/08 19:27:41;;;;;;;2.40;1.53;;;;;;;;;;12599659;23;20763;-86
2023/05/08 19:32:44;;;;;;;2.10;1.50;;;;;;;;;;12599218;23;20392;-85
2023/05/08 19:37:47;;;;;;;2.10;1.85;;;;;;;;;;12598359;23;20854;-85
2023/05/08 19:42:50;;;;;;;2.58;1.90;;;;;;;;;;12599365;23;20384;-86
2023/05/08 19:47:52;;;;;;;2.10;1.90;;;;;;;;;;12599314;23;20416;-86
2023/05/08 19:52:56;;;;;;;1.75;1.60;;;;;;;;;;12600652;23;20456;-86
2023/05/08 19:57:58;;;;;;;2.13;1.52;;;;;;;;;;12599991;23;20885;-86
2023/05/08 20:03:01;;;;;;;2.42;1.90;;;;;;;;;;12595199;23;20401;-86
2023/05/08 20:08:05;;;;;;;2.03;1.60;;;;;;;;;;12596990;23;20813;-85
2023/05/08 20:13:07;;;;;;;2.93;1.90;;;;;;;;;;12596805;23;20388;-86
2023/05/08 20:18:09;;;;;;;2.63;1.92;;;;;;;;;;12595652;23;20841;-86
2023/05/08 20:23:13;;;;;;;2.20;1.90;;;;;;;;;;12608474;23;20433;-86
2023/05/08 20:28:20;;;;;;;2.10;1.88;;;;;;;;;;12595287;23;20385;-85
2023/05/08 20:33:23;;;;;;;2.10;1.90;;;;;;;;;;12594555;23;20463;-84
2023/05/08 20:38:27;;;;;;;2.50;1.83;;;;;;;;;;12593254;23;20388;-85
2023/05/08 20:43:29;;;;;;;2.20;2.00;;;;;;;;;;12593671;23;20396;-84
2023/05/08 20:48:31;;;;;;;3.53;2.50;;;;;;;;;;12593680;23;20408;-85
2023/05/08 20:53:35;;;;;;;3.60;2.60;;;;;;;;;;12595107;23;20943;-84
2023/05/08 20:58:37;;;;;;;2.60;2.40;;;;;;;;;;12597269;23;20517;-83
2023/05/08 21:03:40;;;;;;;2.72;2.50;;;;;;;;;;12593025;23;20404;-84
2023/05/08 21:08:43;;;;;;;3.75;2.70;;;;;;;;;;12593530;23;20384;-84
2023/05/08 21:13:45;;;;;;;2.50;2.30;;;;;;;;;;12594078;23;20384;-85
2023/05/08 21:18:50;;;;;;;3.35;2.47;;;;;;;;;;12602881;23;20930;-84
2023/05/08 21:23:54;;;;;;;3.53;2.67;;;;;;;;;;12604290;23;20389;-84
2023/05/08 21:28:59;;;;;;;3.50;2.60;;;;;;;;;;12592122;23;20381;-86
2023/05/08 21:34:01;;;;;;;2.80;2.43;;;;;;;;;;12596948;23;20380;-85
2023/05/08 21:39:05;;;;;;;3.15;2.70;;;;;;;;;;12602148;23;20729;-85
2023/05/08 21:44:10;;;;;;;3.13;2.80;;;;;;;;;;12619880;23;20547;-86
2023/05/08 21:49:12;;;;;;;3.50;2.87;;;;;;;;;;12600143;23;20475;-85
2023/05/08 21:54:16;;;;;;;4.75;2.83;;;;;;;;;;12606202;23;20928;-86
2023/05/08 21:59:18;;;;;;;3.08;2.63;;;;;;;;;;12605712;23;20377;-86
2023/05/08 22:04:21;;;;;;;2.80;2.50;;;;;;;;;;12603634;23;20396;-86
2023/05/08 22:09:40;;;;;;;4.03;2.83;;;;;;;;;;12605751;23;20853;-86
2023/05/08 22:14:43;;;;;;;4.37;2.87;;;;;;;;;;12602334;23;20410;-86
2023/05/08 22:19:45;;;;;;;3.75;3.00;;;;;;;;;;12628754;23;20901;-85
2023/05/08 22:24:49;;;;;;;3.50;3.20;;;;;;;;;;12607845;23;20385;-86
2023/05/08 22:29:51;;;;;;;4.00;3.15;;;;;;;;;;12608517;23;20455;-86
2023/05/08 22:34:54;;;;;;;3.97;3.57;;;;;;;;;;12608985;23;20431;-85
2023/05/08 22:39:58;;;;;;;5.40;3.27;;;;;;;;;;12584964;23;20433;-86
2023/05/08 22:45:01;;;;;;;4.45;3.40;;;;;;;;;;12609660;23;20393;-86
2023/05/08 22:50:07;;;;;;;4.13;3.67;;;;;;;;;;12608755;23;20409;-85
2023/05/08 22:55:11;;;;;;;4.43;3.53;;;;;;;;;;12609327;23;20424;-86
2023/05/08 23:00:14;;;;;;;4.23;3.67;;;;;;;;;;12608199;23;20376;-86
2023/05/08 23:05:16;;;;;;;4.93;4.00;;;;;;;;;;12620427;23;20382;-83
2023/05/08 23:10:19;;;;;;;5.90;4.60;;;;;;;;;;12669303;23;20371;-82
2023/05/08 23:15:22;;;;;;;5.53;4.43;;;;;;;;;;12669444;23;20703;-83
2023/05/08 23:20:24;;;;;;;6.45;4.68;;;;;;;;;;12669509;23;20371;-83
2023/05/08 23:25:28;;;;;;;6.37;4.77;;;;;;;;;;12670160;23;20851;-83
2023/05/08 23:30:30;;;;;;;7.55;4.53;;;;;;;;;;12669336;23;20375;-84
2023/05/08 23:35:32;;;;;;;7.22;4.95;;;;;;;;;;12669457;23;20426;-83
2023/05/08 23:40:36;;;;;;;5.25;4.40;;;;;;;;;;12670056;23;20441;-83
2023/05/08 23:45:38;;;;;;;5.85;4.57;;;;;;;;;;12669927;23;20422;-83
2023/05/08 23:50:40;;;;;;;5.65;4.70;;;;;;;;;;12669430;23;20462;-83
2023/05/08 23:55:44;;;;;;;5.57;4.68;;;;;;;;;;12668522;23;20457;-82
